createdAt,value
2023-01-22T00:02:09.559Z,1.19
2023-01-22T00:04:39.560Z,1.20
2023-01-22T00:07:09.651Z,1.19
2023-01-22T00:09:39.602Z,1.24
2023-01-22T00:12:09.957Z,1.25
2023-01-22T00:14:40.879Z,1.27
2023-01-22T00:17:14.311Z,1.21
2023-01-22T00:19:44.142Z,1.25
2023-01-22T00:22:14.548Z,1.23
2023-01-22T00:24:44.428Z,1.22
2023-01-22T00:27:14.254Z,1.25
2023-01-22T00:29:44.117Z,1.22
2023-01-22T00:32:16.729Z,1.24
2023-01-22T00:34:52.348Z,1.24
2023-01-22T00:37:22.999Z,1.27
2023-01-22T00:39:53.134Z,1.26
2023-01-22T00:42:23.005Z,1.23
2023-01-22T00:44:52.808Z,1.29
2023-01-22T00:47:25.325Z,1.26
2023-01-22T00:49:55.266Z,1.31
2023-01-22T00:52:25.141Z,1.30
2023-01-22T00:54:54.913Z,1.32
2023-01-22T00:57:25.013Z,1.36
2023-01-22T00:59:55.120Z,1.34
2023-01-22T01:02:27.642Z,1.40
2023-01-22T01:04:57.681Z,1.38
2023-01-22T01:07:27.737Z,1.35
2023-01-22T01:09:57.695Z,1.35
2023-01-22T01:12:27.815Z,1.37
2023-01-22T01:14:58.133Z,1.38
2023-01-22T01:17:33.554Z,1.37
2023-01-22T01:20:03.493Z,1.36
2023-01-22T01:22:33.504Z,1.37
2023-01-22T01:25:03.319Z,1.40
2023-01-22T01:27:34.154Z,1.40
2023-01-22T01:30:04.214Z,1.37
2023-01-22T01:32:38.344Z,1.35
2023-01-22T01:35:09.374Z,1.36
2023-01-22T01:37:39.307Z,1.35
2023-01-22T01:40:11.182Z,1.40
2023-01-22T01:42:45.097Z,1.39
2023-01-22T01:45:26.394Z,1.34
2023-01-22T01:48:06.477Z,1.32
2023-01-22T01:50:36.729Z,1.43
2023-01-22T01:53:07.612Z,1.46
2023-01-22T01:55:40.130Z,1.49
2023-01-22T01:58:21.449Z,1.46
2023-01-22T02:00:57.231Z,1.48
2023-01-22T02:03:31.590Z,1.48
2023-01-22T02:06:01.880Z,1.52
2023-01-22T02:08:31.919Z,1.53
2023-01-22T02:11:02.075Z,1.52
2023-01-22T02:13:35.773Z,1.52
2023-01-22T02:16:06.039Z,1.54
2023-01-22T02:18:39.080Z,1.53
2023-01-22T02:21:35.984Z,1.51
2023-01-22T02:24:07.346Z,1.55
2023-01-22T02:26:37.714Z,1.58
2023-01-22T02:29:08.151Z,1.63
2023-01-22T02:31:38.777Z,1.67
2023-01-22T02:34:09.761Z,1.68
2023-01-22T02:36:42.819Z,1.70
2023-01-22T02:39:12.783Z,1.70
2023-01-22T02:41:43.042Z,1.70
2023-01-22T02:44:12.779Z,1.68
2023-01-22T02:46:42.719Z,1.63
2023-01-22T02:49:12.472Z,1.62
2023-01-22T02:51:45.277Z,1.62
2023-01-22T02:54:15.083Z,1.61
2023-01-22T02:56:44.877Z,1.60
2023-01-22T02:59:14.780Z,1.59
2023-01-22T03:01:44.609Z,1.59
2023-01-22T03:04:14.591Z,1.56
2023-01-22T03:06:48.851Z,1.59
2023-01-22T03:09:20.479Z,1.53
2023-01-22T03:11:50.423Z,1.50
2023-01-22T03:14:32.835Z,1.48
2023-01-22T03:17:17.812Z,1.57
2023-01-22T03:20:00.025Z,1.54
2023-01-22T03:22:33.215Z,1.49
2023-01-22T03:25:03.057Z,1.52
2023-01-22T03:27:34.803Z,1.54
2023-01-22T03:30:04.559Z,1.56
2023-01-22T03:32:34.281Z,1.56
2023-01-22T03:35:04.860Z,1.52
2023-01-22T03:37:37.193Z,1.44
2023-01-22T03:40:07.791Z,1.44
2023-01-22T03:42:37.581Z,1.46
2023-01-22T03:45:10.103Z,1.44
2023-01-22T03:47:39.927Z,1.44
2023-01-22T03:50:11.251Z,1.38
2023-01-22T03:52:43.651Z,1.36
2023-01-22T03:55:13.732Z,1.44
2023-01-22T03:57:43.523Z,1.44
2023-01-22T04:00:14.743Z,1.46
2023-01-22T04:02:44.546Z,1.45
2023-01-22T04:05:14.341Z,1.48
2023-01-22T04:07:46.771Z,1.44
2023-01-22T04:10:16.882Z,1.48
2023-01-22T04:12:46.886Z,1.47
2023-01-22T04:15:16.707Z,1.45
2023-01-22T04:17:46.392Z,1.43
2023-01-22T04:20:16.403Z,1.47
2023-01-22T04:22:50.213Z,1.43
2023-01-22T04:25:20.335Z,1.41
2023-01-22T04:27:50.435Z,1.42
2023-01-22T04:30:20.813Z,1.37
2023-01-22T04:32:50.575Z,1.40
2023-01-22T04:35:20.728Z,1.36
2023-01-22T04:37:53.156Z,1.40
2023-01-22T04:40:23.132Z,1.41
2023-01-22T04:42:52.912Z,1.36
2023-01-22T04:45:22.907Z,1.40
2023-01-22T04:47:52.616Z,1.41
2023-01-22T04:50:24.681Z,1.42
2023-01-22T04:52:58.584Z,1.37
2023-01-22T04:55:29.360Z,1.40
2023-01-22T04:57:59.951Z,1.43
2023-01-22T05:00:31.876Z,1.42
2023-01-22T05:03:03.206Z,1.43
2023-01-22T05:05:34.380Z,1.43
2023-01-22T05:08:07.454Z,1.43
2023-01-22T05:10:37.258Z,1.41
2023-01-22T05:13:07.697Z,1.43
2023-01-22T05:15:37.856Z,1.44
2023-01-22T05:18:07.822Z,1.43
2023-01-22T05:20:37.564Z,1.41
2023-01-22T05:23:09.911Z,1.38
2023-01-22T05:25:39.702Z,1.38
2023-01-22T05:28:09.489Z,1.40
2023-01-22T05:30:39.529Z,1.35
2023-01-22T05:33:11.413Z,1.34
2023-01-22T05:35:41.381Z,1.32
2023-01-22T05:38:13.835Z,1.32
2023-01-22T05:40:43.626Z,1.33
2023-01-22T05:43:13.418Z,1.28
2023-01-22T05:45:43.210Z,1.28
2023-01-22T05:48:13.040Z,1.27
2023-01-22T05:50:43.345Z,1.34
2023-01-22T05:53:15.854Z,1.34
2023-01-22T05:55:45.587Z,1.32
2023-01-22T05:58:15.381Z,1.36
2023-01-22T06:00:45.115Z,1.36
2023-01-22T06:03:15.469Z,1.38
2023-01-22T06:05:45.214Z,1.40
2023-01-22T06:08:17.641Z,1.40
2023-01-22T06:10:47.411Z,1.40
2023-01-22T06:13:17.178Z,1.34
2023-01-22T06:15:46.903Z,1.35
2023-01-22T06:18:16.651Z,1.32
2023-01-22T06:20:46.531Z,1.35
2023-01-22T06:23:18.927Z,1.33
2023-01-22T06:25:55.855Z,1.35
2023-01-22T06:28:25.785Z,1.33
2023-01-22T06:30:57.608Z,1.39
2023-01-22T06:33:27.557Z,1.38
2023-01-22T06:35:57.848Z,1.43
2023-01-22T06:38:30.316Z,1.38
2023-01-22T06:41:01.765Z,1.45
2023-01-22T06:43:32.001Z,1.41
2023-01-22T06:46:01.829Z,1.44
2023-01-22T06:48:31.678Z,1.46
2023-01-22T06:51:02.006Z,1.43
2023-01-22T06:53:34.711Z,1.45
2023-01-22T06:56:04.673Z,1.42
2023-01-22T06:58:34.511Z,1.46
2023-01-22T07:01:04.582Z,1.44
2023-01-22T07:03:34.918Z,1.41
2023-01-22T07:06:06.786Z,1.44
2023-01-22T07:08:39.206Z,1.40
2023-01-22T07:11:08.996Z,1.39
2023-01-22T07:13:38.787Z,1.44
2023-01-22T07:16:09.949Z,1.46
2023-01-22T07:18:39.771Z,1.46
2023-01-22T07:21:09.701Z,1.37
2023-01-22T07:23:42.418Z,1.37
2023-01-22T07:26:12.314Z,1.33
2023-01-22T07:28:42.132Z,1.31
2023-01-22T07:31:13.037Z,1.38
2023-01-22T07:33:42.924Z,1.34
2023-01-22T07:36:12.991Z,1.38
2023-01-22T07:38:45.342Z,1.35
2023-01-22T07:41:25.450Z,1.35
2023-01-22T07:43:57.769Z,1.30
2023-01-22T07:46:27.803Z,1.30
2023-01-22T07:48:57.682Z,1.34
2023-01-22T07:51:27.512Z,1.30
2023-01-22T07:53:59.971Z,1.34
2023-01-22T07:56:29.705Z,1.36
2023-01-22T07:58:59.436Z,1.37
2023-01-22T08:01:29.300Z,1.30
2023-01-22T08:04:00.040Z,1.34
2023-01-22T08:06:29.787Z,1.34
2023-01-22T08:09:02.226Z,1.38
2023-01-22T08:11:32.066Z,1.40
2023-01-22T08:14:01.821Z,1.37
2023-01-22T08:16:32.115Z,1.43
2023-01-22T08:19:01.947Z,1.41
2023-01-22T08:21:31.636Z,1.41
2023-01-22T08:24:05.213Z,1.40
2023-01-22T08:26:34.959Z,1.38
2023-01-22T08:29:07.803Z,1.43
2023-01-22T08:31:37.847Z,1.42
2023-01-22T08:34:07.820Z,1.45
2023-01-22T08:36:37.680Z,1.47
2023-01-22T08:39:10.929Z,1.50
2023-01-22T08:41:40.815Z,1.50
2023-01-22T08:44:10.917Z,1.48
2023-01-22T08:46:40.965Z,1.50
2023-01-22T08:49:11.233Z,1.50
2023-01-22T08:51:40.996Z,1.56
2023-01-22T08:54:13.531Z,1.56
2023-01-22T08:56:43.322Z,1.57
2023-01-22T08:59:13.087Z,1.54
2023-01-22T09:01:43.225Z,1.56
2023-01-22T09:04:13.841Z,1.59
2023-01-22T09:06:44.178Z,1.63
2023-01-22T09:09:16.565Z,1.62
2023-01-22T09:11:46.982Z,1.64
2023-01-22T09:14:16.989Z,1.58
2023-01-22T09:16:46.777Z,1.57
2023-01-22T09:19:16.742Z,1.58
2023-01-22T09:21:46.546Z,1.59
2023-01-22T09:24:19.020Z,1.60
2023-01-22T09:26:48.779Z,1.60
2023-01-22T09:29:18.751Z,1.60
2023-01-22T09:31:48.563Z,1.67
2023-01-22T09:34:18.508Z,1.66
2023-01-22T09:36:48.723Z,1.66
2023-01-22T09:39:21.533Z,1.64
2023-01-22T09:41:54.775Z,1.64
2023-01-22T09:44:31.038Z,1.57
2023-01-22T09:47:04.184Z,1.67
2023-01-22T09:49:39.866Z,1.66
2023-01-22T09:52:09.805Z,1.63
2023-01-22T09:54:43.908Z,1.63
2023-01-22T09:57:30.841Z,1.68
2023-01-22T10:00:01.567Z,1.63
2023-01-22T10:02:38.287Z,1.69
2023-01-22T10:05:21.661Z,1.63
2023-01-22T10:07:56.285Z,1.71
2023-01-22T10:10:30.469Z,1.71
2023-01-22T10:13:09.557Z,1.76
2023-01-22T10:15:39.614Z,1.77
2023-01-22T10:18:23.292Z,1.74
2023-01-22T10:20:53.471Z,1.75
2023-01-22T10:23:25.811Z,1.82
2023-01-22T10:26:03.124Z,1.83
2023-01-22T10:28:33.591Z,1.86
2023-01-22T10:31:03.493Z,1.87
2023-01-22T10:33:33.388Z,1.88
2023-01-22T10:36:07.691Z,1.88
2023-01-22T10:38:37.737Z,1.87
2023-01-22T10:41:10.133Z,1.83
2023-01-22T10:43:41.633Z,1.85
2023-01-22T10:46:21.246Z,1.86
2023-01-22T10:49:01.664Z,1.91
2023-01-22T10:51:34.435Z,1.91
2023-01-22T10:54:05.228Z,1.92
2023-01-22T10:56:40.501Z,1.96
2023-01-22T10:59:23.255Z,1.96
2023-01-22T11:01:59.779Z,2.00
2023-01-22T11:04:31.395Z,2.06
2023-01-22T11:07:08.360Z,2.09
2023-01-22T11:09:44.718Z,2.09
2023-01-22T11:12:24.031Z,2.09
2023-01-22T11:15:05.110Z,2.12
2023-01-22T11:17:41.279Z,2.12
2023-01-22T11:20:20.966Z,2.14
2023-01-22T11:23:02.710Z,2.15
2023-01-22T11:25:41.099Z,2.17
2023-01-22T11:28:29.024Z,2.11
2023-01-22T11:31:14.776Z,2.12
2023-01-22T11:34:09.742Z,2.11
2023-01-22T11:36:46.840Z,2.15
2023-01-22T11:39:31.937Z,2.17
2023-01-22T11:42:07.821Z,2.22
2023-01-22T11:45:01.278Z,2.17
2023-01-22T11:47:50.240Z,2.15
2023-01-22T11:50:30.164Z,2.20
2023-01-22T11:53:16.518Z,2.23
2023-01-22T11:56:09.023Z,2.23
2023-01-22T11:58:48.318Z,2.28
2023-01-22T12:01:29.803Z,2.25
2023-01-22T12:04:28.402Z,2.25
2023-01-22T12:07:23.650Z,2.29
2023-01-22T12:10:03.426Z,2.32
2023-01-22T12:12:42.953Z,2.30
2023-01-22T12:15:42.621Z,2.28
2023-01-22T12:18:41.361Z,2.28
2023-01-22T12:21:15.405Z,2.31
2023-01-22T12:23:51.167Z,2.32
2023-01-22T12:26:26.559Z,2.29
2023-01-22T12:29:04.273Z,2.29
2023-01-22T12:31:38.852Z,2.28
2023-01-22T12:34:16.318Z,2.28
2023-01-22T12:36:48.234Z,2.34
2023-01-22T12:39:31.307Z,2.33
2023-01-22T12:42:09.714Z,2.34
2023-01-22T12:44:53.877Z,2.35
2023-01-22T12:47:32.385Z,2.38
2023-01-22T12:50:05.028Z,2.40
2023-01-22T12:52:41.198Z,2.43
2023-01-22T12:55:30.872Z,2.43
2023-01-22T12:58:01.668Z,2.45
2023-01-22T13:00:35.954Z,2.47
2023-01-22T13:03:07.367Z,2.51
2023-01-22T13:05:47.275Z,2.47
2023-01-22T13:08:29.873Z,2.49
2023-01-22T13:11:01.969Z,2.51
2023-01-22T13:13:36.195Z,2.49
2023-01-22T13:16:08.297Z,2.55
2023-01-22T13:18:44.994Z,2.51
2023-01-22T13:21:20.350Z,2.55
2023-01-22T13:23:52.257Z,2.59
2023-01-22T13:26:24.341Z,2.57
2023-01-22T13:28:55.950Z,2.57
2023-01-22T13:31:26.239Z,2.60
2023-01-22T13:33:58.279Z,2.62
2023-01-22T13:36:31.384Z,2.63
2023-01-22T13:39:02.307Z,2.59
2023-01-22T13:41:37.085Z,2.61
2023-01-22T13:44:08.544Z,2.66
2023-01-22T13:46:40.626Z,2.64
2023-01-22T13:49:15.464Z,2.65
2023-01-22T13:51:48.918Z,2.64
2023-01-22T13:54:26.442Z,2.61
2023-01-22T13:56:56.311Z,2.67
2023-01-22T13:59:27.953Z,2.65
2023-01-22T14:02:00.787Z,2.68
2023-01-22T14:04:39.972Z,2.64
2023-01-22T14:07:18.046Z,2.63
2023-01-22T14:09:47.970Z,2.70
2023-01-22T14:12:19.881Z,2.69
2023-01-22T14:14:49.942Z,2.69
2023-01-22T14:17:30.267Z,2.67
2023-01-22T14:20:00.853Z,2.75
2023-01-22T14:22:33.273Z,2.73
2023-01-22T14:25:03.292Z,2.67
2023-01-22T14:27:45.865Z,2.65
2023-01-22T14:30:18.356Z,2.66
2023-01-22T14:32:49.054Z,2.68
2023-01-22T14:35:20.624Z,2.68
2023-01-22T14:37:53.880Z,2.70
2023-01-22T14:40:26.707Z,2.72
2023-01-22T14:42:56.692Z,2.73
2023-01-22T14:45:26.550Z,2.72
2023-01-22T14:47:57.196Z,2.71
2023-01-22T14:50:27.110Z,2.67
2023-01-22T14:52:59.693Z,2.66
2023-01-22T14:55:29.678Z,2.72
2023-01-22T14:58:00.401Z,2.74
2023-01-22T15:00:31.307Z,2.78
2023-01-22T15:03:02.444Z,2.81
2023-01-22T15:05:34.632Z,2.77
2023-01-22T15:08:08.198Z,2.78
2023-01-22T15:10:38.113Z,2.77
2023-01-22T15:13:07.916Z,2.76
2023-01-22T15:15:37.707Z,2.73
2023-01-22T15:18:07.705Z,2.65
2023-01-22T15:20:37.620Z,2.66
2023-01-22T15:23:10.103Z,2.70
2023-01-22T15:25:39.933Z,2.66
2023-01-22T15:28:09.815Z,2.64
2023-01-22T15:30:39.763Z,2.64
2023-01-22T15:33:09.592Z,2.64
2023-01-22T15:35:39.541Z,2.62
2023-01-22T15:38:11.966Z,2.62
2023-01-22T15:40:44.986Z,2.67
2023-01-22T15:43:14.819Z,2.63
2023-01-22T15:45:46.958Z,2.66
2023-01-22T15:48:16.808Z,2.66
2023-01-22T15:50:47.235Z,2.69
2023-01-22T15:53:19.871Z,2.64
2023-01-22T15:55:53.042Z,2.63
2023-01-22T15:58:22.908Z,2.68
2023-01-22T16:00:52.732Z,2.67
2023-01-22T16:03:22.658Z,2.66
2023-01-22T16:05:52.788Z,2.66
2023-01-22T16:08:25.561Z,2.67
2023-01-22T16:10:55.736Z,2.71
2023-01-22T16:13:25.499Z,2.68
2023-01-22T16:16:01.466Z,2.64
2023-01-22T16:18:31.244Z,2.62
2023-01-22T16:21:03.581Z,2.59
2023-01-22T16:23:38.591Z,2.58
2023-01-22T16:26:09.567Z,2.64
2023-01-22T16:28:39.405Z,2.68
2023-01-22T16:31:11.173Z,2.69
2023-01-22T16:33:44.564Z,2.68
2023-01-22T16:36:16.497Z,2.69
2023-01-22T16:38:49.703Z,2.71
2023-01-22T16:41:30.625Z,2.66
2023-01-22T16:44:02.423Z,2.70
2023-01-22T16:46:34.076Z,2.70
2023-01-22T16:49:05.602Z,2.74
2023-01-22T16:51:40.664Z,2.76
2023-01-22T16:54:21.156Z,2.78
2023-01-22T16:56:51.666Z,2.75
2023-01-22T16:59:21.648Z,2.78
2023-01-22T17:01:51.579Z,2.78
2023-01-22T17:04:21.692Z,2.77
2023-01-22T17:06:53.790Z,2.78
2023-01-22T17:09:28.033Z,2.76
2023-01-22T17:12:00.845Z,2.80
2023-01-22T17:14:32.574Z,2.83
2023-01-22T17:17:02.591Z,2.83
2023-01-22T17:19:32.415Z,2.84
2023-01-22T17:22:03.729Z,2.80
2023-01-22T17:24:36.482Z,2.79
2023-01-22T17:27:06.521Z,2.76
2023-01-22T17:29:36.725Z,2.78
2023-01-22T17:32:07.659Z,2.79
2023-01-22T17:34:37.487Z,2.79
2023-01-22T17:37:10.406Z,2.80
2023-01-22T17:39:46.206Z,2.75
2023-01-22T17:42:16.080Z,2.78
2023-01-22T17:44:46.095Z,2.81
2023-01-22T17:47:16.174Z,2.81
2023-01-22T17:49:48.128Z,2.81
2023-01-22T17:52:19.400Z,2.76
2023-01-22T17:54:52.491Z,2.81
2023-01-22T17:57:22.258Z,2.80
2023-01-22T17:59:52.262Z,2.83
2023-01-22T18:02:22.115Z,2.83
2023-01-22T18:04:52.156Z,2.87
2023-01-22T18:07:21.873Z,2.84
2023-01-22T18:09:54.270Z,2.82
2023-01-22T18:12:27.785Z,2.83
2023-01-22T18:14:57.629Z,2.82
2023-01-22T18:17:27.652Z,2.81
2023-01-22T18:19:57.497Z,2.81
2023-01-22T18:22:27.315Z,2.82
2023-01-22T18:25:00.530Z,2.79
2023-01-22T18:27:30.856Z,2.83
2023-01-22T18:30:00.667Z,2.84
2023-01-22T18:32:31.535Z,2.84
2023-01-22T18:35:01.520Z,2.78
2023-01-22T18:37:33.832Z,2.81
2023-01-22T18:40:07.511Z,2.84
2023-01-22T18:42:37.268Z,2.85
2023-01-22T18:45:08.237Z,2.87
2023-01-22T18:47:38.689Z,2.92
2023-01-22T18:50:10.203Z,2.94
2023-01-22T18:52:40.056Z,2.93
2023-01-22T18:55:13.022Z,2.90
2023-01-22T18:57:44.908Z,2.92
2023-01-22T19:00:15.977Z,2.91
2023-01-22T19:02:45.794Z,2.88
2023-01-22T19:05:15.602Z,2.89
2023-01-22T19:07:45.414Z,2.88
2023-01-22T19:10:23.272Z,2.87
2023-01-22T19:12:53.108Z,2.89
2023-01-22T19:15:24.336Z,2.86
2023-01-22T19:17:54.286Z,2.90
2023-01-22T19:20:24.092Z,2.92
2023-01-22T19:22:54.163Z,2.88
2023-01-22T19:25:26.843Z,2.89
2023-01-22T19:27:57.993Z,2.93
2023-01-22T19:30:27.786Z,2.92
2023-01-22T19:32:57.870Z,2.97
2023-01-22T19:35:27.929Z,3.01
2023-01-22T19:37:57.742Z,3.04
2023-01-22T19:40:30.355Z,3.03
2023-01-22T19:43:00.106Z,3.02
2023-01-22T19:45:29.902Z,3.00
2023-01-22T19:47:59.851Z,3.01
2023-01-22T19:50:29.700Z,3.03
2023-01-22T19:52:59.472Z,3.01
2023-01-22T19:55:31.863Z,3.00
2023-01-22T19:58:01.739Z,3.01
2023-01-22T20:00:31.588Z,3.02
2023-01-22T20:03:06.081Z,3.03
2023-01-22T20:05:36.015Z,3.02
2023-01-22T20:08:06.050Z,3.03
2023-01-22T20:10:41.701Z,3.05
2023-01-22T20:13:14.509Z,3.07
2023-01-22T20:15:45.498Z,3.06
2023-01-22T20:18:15.416Z,3.09
2023-01-22T20:20:45.348Z,3.11
2023-01-22T20:23:15.534Z,3.15
2023-01-22T20:25:48.009Z,3.18
2023-01-22T20:28:18.203Z,3.16
2023-01-22T20:30:48.620Z,3.18
2023-01-22T20:33:18.865Z,3.12
2023-01-22T20:35:48.592Z,3.12
2023-01-22T20:38:18.672Z,3.13
2023-01-22T20:40:51.023Z,3.11
2023-01-22T20:43:21.600Z,3.15
2023-01-22T20:46:01.540Z,3.08
2023-01-22T20:48:32.499Z,3.09
2023-01-22T20:51:02.698Z,3.09
2023-01-22T20:53:33.338Z,3.07
2023-01-22T20:56:09.239Z,3.06
2023-01-22T20:58:39.432Z,3.01
2023-01-22T21:01:11.809Z,3.05
2023-01-22T21:03:41.563Z,3.02
2023-01-22T21:06:14.395Z,3.03
2023-01-22T21:08:44.653Z,3.01
2023-01-22T21:11:18.050Z,3.00
2023-01-22T21:13:47.843Z,3.01
2023-01-22T21:16:19.615Z,3.01
2023-01-22T21:18:49.525Z,3.01
2023-01-22T21:21:21.992Z,3.01
2023-01-22T21:23:53.429Z,3.02
2023-01-22T21:26:27.833Z,3.04
2023-01-22T21:28:59.533Z,3.11
2023-01-22T21:31:30.008Z,3.14
2023-01-22T21:34:05.103Z,3.18
2023-01-22T21:36:38.404Z,3.23
2023-01-22T21:39:12.330Z,3.23
2023-01-22T21:41:49.628Z,3.23
2023-01-22T21:44:33.968Z,3.23
2023-01-22T21:47:03.943Z,3.25
2023-01-22T21:49:36.316Z,3.28
2023-01-22T21:52:09.554Z,3.29
2023-01-22T21:54:41.622Z,3.31
2023-01-22T21:57:17.228Z,3.33
2023-01-22T21:59:47.197Z,3.34
2023-01-22T22:02:19.036Z,3.37
2023-01-22T22:04:49.096Z,3.40
2023-01-22T22:07:19.569Z,3.43
2023-01-22T22:09:49.359Z,3.45
2023-01-22T22:12:21.727Z,3.46
2023-01-22T22:14:51.728Z,3.46
2023-01-22T22:17:21.541Z,3.48
2023-01-22T22:19:51.383Z,3.51
2023-01-22T22:22:21.119Z,3.54
2023-01-22T22:24:50.937Z,3.53
2023-01-22T22:27:23.344Z,3.51
2023-01-22T22:29:55.143Z,3.53
2023-01-22T22:32:24.879Z,3.54
2023-01-22T22:34:54.609Z,3.54
2023-01-22T22:37:24.322Z,3.54
2023-01-22T22:39:54.046Z,3.54
2023-01-22T22:42:26.503Z,3.58
2023-01-22T22:44:56.274Z,3.60
2023-01-22T22:47:25.988Z,3.57
2023-01-22T22:49:56.646Z,3.57
2023-01-22T22:52:26.374Z,3.59
2023-01-22T22:54:56.246Z,3.59
2023-01-22T22:57:28.615Z,3.57
2023-01-22T22:59:58.620Z,3.62
2023-01-22T23:02:28.403Z,3.64
2023-01-22T23:04:58.144Z,3.66
2023-01-22T23:07:27.898Z,3.69
2023-01-22T23:09:58.187Z,3.70
2023-01-22T23:12:30.955Z,3.71
2023-01-22T23:15:00.719Z,3.70
2023-01-22T23:17:30.487Z,3.71
2023-01-22T23:20:00.217Z,3.69
2023-01-22T23:22:30.828Z,3.68
2023-01-22T23:25:00.819Z,3.67
2023-01-22T23:27:34.622Z,3.66
2023-01-22T23:30:04.426Z,3.65
2023-01-22T23:32:34.217Z,3.67
2023-01-22T23:35:03.955Z,3.68
2023-01-22T23:37:34.100Z,3.59
2023-01-22T23:40:04.297Z,3.61
2023-01-22T23:42:36.746Z,3.59
2023-01-22T23:45:07.365Z,3.54
2023-01-22T23:47:37.084Z,3.48
2023-01-22T23:50:08.773Z,3.47
2023-01-22T23:52:38.917Z,3.44
2023-01-22T23:55:09.833Z,3.44
2023-01-22T23:57:42.555Z,3.44
